Tiempo atmosférico en la estación meteorológica de Madrid, El Goloso, Madrid (740 m.)



Fecha
DESCASC
Temp. máxima en grados centígrados (hora)
DESCASC
Temp. mínima en grados centígrados (hora)
DESCASC
Temp. media en grados centígrados
DESCASC
Racha de viento máxima en m/sg (hora)
DESCASC
Velocidad máxima media en intervalos de 10 minutos(hora)
DESCASC
Precipitaciones diarias en mm
DESCASC
Precipitaciones de 00:00 a 06:00 en mm
DESCASC
Precipitaciones de 06:00 a 12:00 en mm
DESCASC
Precipitaciones de 12:00 a 18:00 en mm
DESCASC
Precipitaciones de 18:00 a 24:00 en mm
DESCASC
19-01-2020 9.4 (15:50) 2 (02:30) 5.7 16.94 (16:20) 7.5 (15:50) 0.2 0 0 0.2 0
18-01-2020 6.8 (20:40) 3 (05:20) 4.9 8.61 (23:00) 3.06 (23:00) 3 0 1 1.2 0.8
17-01-2020 11.8 (16:10) 2.9 (07:20) 7.4 7.22 (11:50) 3.33 (15:40) 0 0 0 0 0
16-01-2020 11.2 (16:40) 5.5 (00:00) 8.3 3.61 (15:20) 1.67 (15:00) 0.4 0 0.4 0 0
15-01-2020 6.9 (16:10) 1.3 (00:00) 4.1 2.22 (12:00) 1.11 (11:50) 0 0 0 0 0
14-01-2020 7.4 (16:30) -4.5 (-00:0) 1.5 2.78 (11:40) 1.39 (11:30) 0 0 0 0 0
13-01-2020 7.9 (16:10) -4.5 (-00:0) 1.7 3.61 (16:10) 1.11 (13:40) 0 0 0 0 0
12-01-2020 10 (17:00) -5.6 (-00:0) 2.2 2.78 (12:20) 1.39 (12:20) 0 0 0 0 0
11-01-2020 10.2 (16:50) -3.8 (-00:0) 3.2 3.61 (14:20) 1.67 (14:30) 0 0 0 0 0
10-01-2020 10.2 (15:30) 0.3 (00:00) 5.2 10.56 (12:50) 5.83 (12:40) 0 0 0 0 0
09-01-2020 12.1 (14:10) 0.3 (00:00) 6.2 5 (21:40) 2.22 (15:20) 0 0 0 0 0
08-01-2020 14.4 (14:30) -1 (-00:0) 6.7 3.33 (12:40) 1.67 (12:40) 0 0 0 0 0
07-01-2020 13.5 (14:20) -1.9 (-00:0) 5.8 2.78 (14:30) 1.39 (11:40) 0 0 0 0 0
06-01-2020 12.9 (16:00) -2.5 (-00:0) 5.2 2.5 (15:10) 1.39 (12:20) 0 0 0 0 0
05-01-2020 12.7 (16:20) -3.3 (-00:0) 4.7 2.5 (12:30) 1.39 (12:10) 0 0 0 0 0
04-01-2020 10.6 (16:00) -2.2 (-00:0) 4.2 5.56 (14:10) 2.78 (12:40) 0 0 0 0 0
03-01-2020 6.2 (16:30) -1.2 (-00:0) 2.5 3.33 (11:30) 1.67 (11:30) 0 0 0 0 0
02-01-2020 11 (16:10) -2 (-00:0) 4.5 2.22 (15:00) 1.11 (11:10) 0 0 0 0 0
01-01-2020 12.7 (14:10) -2.1 (-00:0) 5.3 -- (--) -- (--) 0 0 0 0 0
31-12-2019 -- (--) -- (--) -- -- (--) -- (--) 0 0 0 0 0
30-12-2019 -- (--) -- (--) -- -- (--) -- (--) 0 0 0 0 0
29-12-2019 14.1 (16:10) -2.2 (-00:0) 6 2.22 (12:40) 1.39 (12:40) 0 0 0 0 0
28-12-2019 15.6 (14:20) -1.8 (-00:0) 6.9 3.33 (14:40) 2.22 (15:00) 0 0 0 0 0
27-12-2019 13.1 (16:20) -0.3 (00:00) 6.4 3.89 (00:50) 2.22 (00:40) 0 0 0 0 0
26-12-2019 14.3 (16:30) 3.6 (00:00) 9 4.17 (23:40) 2.22 (23:30) 0 0 0 0 0
25-12-2019 16.1 (15:50) 1.7 (00:00) 8.9 2.78 (11:50) 1.39 (11:30) 0 0 0 0 0
24-12-2019 13.2 (16:20) 2.4 (00:00) 7.8 2.22 (12:20) 1.11 (11:50) 0 0 0 0 0
23-12-2019 13.7 (14:30) 2.2 (00:00) 7.9 8.89 (02:10) 3.89 (02:00) 0 0 0 0 0
22-12-2019 12.8 (19:20) 8.9 (00:00) 10.8 13.61 (02:40) 6.39 (02:40) 0 0 0 0 0

Gráficas

Temp. máximas Temp. mínimas Temp. medias Precipitaciones Rachas de viento máximas Velocidades máximas media en intervalos de 10 minutos

Datos horarios

Fecha y hora oficial Temperatura (ºC) Velocidad del viento (km/h) Dirección del viento Racha (km/h) Dirección de racha Precipitación (mm) Presión (hPa) Tendencia (hPa) Humedad (%)
2020-01-20 23:00:00 4.3 21 Nordeste 42 Nordeste 0 -- -- 60
2020-01-20 22:00:00 4.2 16 Nordeste 41 Este 0 -- -- 57
2020-01-20 21:00:00 4.4 15 Nordeste 41 Nordeste 0 -- -- 57
2020-01-20 20:00:00 4.6 22 Este 47 Este 0 -- -- 56
2020-01-20 19:00:00 4.8 21 Nordeste 47 Nordeste 0 -- -- 55
2020-01-20 18:00:00 5 18 Este 46 Este 0 -- -- 51
2020-01-20 17:00:00 5.2 18 Este 47 Este 0 -- -- 51
2020-01-20 16:00:00 5.2 16 Este 49 Nordeste 0 -- -- 48
2020-01-20 15:00:00 5.5 15 Este 48 Este 0 -- -- 46
2020-01-20 14:00:00 5.5 21 Este 55 Este 0 -- -- 43
2020-01-20 13:00:00 6.7 20 Este 47 Este 0 -- -- 36
2020-01-20 12:00:00 5.7 18 Este 40 Este 0 -- -- 31
2020-01-20 11:00:00 3.2 10 Este 24 Nordeste 0 -- -- 34
2020-01-20 10:00:00 1.9 7 Este 20 Este 0 -- -- 37
2020-01-20 09:00:00 1.3 6 Nordeste 22 Nordeste 0 -- -- 37
2020-01-20 08:00:00 0.9 9 Este 22 Nordeste 0 -- -- 38
2020-01-20 07:00:00 0.4 7 Este 17 Nordeste 0 -- -- 40
2020-01-20 06:00:00 0.1 8 Este 17 Este 0 -- -- 44
2020-01-20 05:00:00 0.9 6 Este 22 Nordeste 0 -- -- 42
2020-01-20 04:00:00 1.3 10 Nordeste 23 Nordeste 0 -- -- 39
2020-01-20 03:00:00 1.3 6 Nordeste 22 Nordeste 0 -- -- 42
2020-01-20 02:00:00 1.9 12 Nordeste 29 Norte 0 -- -- 39
2020-01-20 01:00:00 2.2 12 Nordeste 26 Norte 0 -- -- 40
2020-01-20 00:00:00 2.2 10 Nordeste 24 Nordeste 0 -- -- 40
2020-01-19 23:00:00 2.8 8 Nordeste 33 Este 0 -- -- 41
2020-01-19 22:00:00 3.5 16 Nordeste 36 Nordeste 0 -- -- 39
2020-01-19 21:00:00 4 16 Nordeste 39 Nordeste 0 -- -- 38
2020-01-19 20:00:00 4.5 17 Nordeste 42 Norte 0 -- -- 39
2020-01-19 19:00:00 5.3 15 Nordeste 47 Norte 0 -- -- 41
2020-01-19 18:00:00 6.4 15 Nordeste 45 Nordeste 0 -- -- 40
2020-01-19 17:00:00 8.4 21 Nordeste 61 Nordeste 0 -- -- 34
2020-01-19 16:00:00 9.3 24 Nordeste 57 Nordeste 0 -- -- 26
2020-01-19 15:00:00 8.4 14 Nordeste 44 Norte 0 -- -- 40
2020-01-19 14:00:00 8.7 24 Nordeste 48 Nordeste 0.2 -- -- 44
2020-01-19 13:00:00 8.2 11 Nordeste 42 Nordeste 0 -- -- 53
2020-01-19 12:00:00 7.4 20 Nordeste 45 Norte 0 -- -- 59
2020-01-19 11:00:00 6.4 16 Norte 36 Nordeste 0 -- -- 69
2020-01-19 10:00:00 6 8 Norte 27 Nordeste 0 -- -- 74
2020-01-19 09:00:00 5.8 7 Nordeste 22 Nordeste 0 -- -- 73
2020-01-19 08:00:00 5 4 Norte 13 Norte 0 -- -- 80
2020-01-19 07:00:00 3.5 3 Norte 13 Noroeste 0 -- -- 89
2020-01-19 06:00:00 3.5 2 Oeste 12 Norte 0 -- -- 88
2020-01-19 05:00:00 3.8 5 Norte 12 Noroeste 0 -- -- 88
2020-01-19 04:00:00 4.3 2 Nordeste 13 Nordeste 0 -- -- 86
2020-01-19 03:00:00 3.1 6 Norte 15 Norte 0 -- -- 96
2020-01-19 02:00:00 2.8 0 Calma 9 Noroeste 0 -- -- 94
2020-01-19 01:00:00 4.2 5 Norte 13 Noroeste 0 -- -- 89
2020-01-19 00:00:00 5.6 6 Oeste 17 Noroeste 0 -- -- 90
2020-01-18 23:00:00 6.4 11 Noroeste 31 Noroeste 0.4 -- -- 93
2020-01-18 22:00:00 6 5 Oeste 22 Noroeste 0.2 -- -- 97
2020-01-18 21:00:00 6.7 4 Oeste 12 Noroeste 0 -- -- 100
2020-01-18 20:00:00 6.6 4 Oeste 13 Sudoeste 0.2 -- -- 99
2020-01-18 19:00:00 6.3 3 Noroeste 8 Norte 0 -- -- 99
2020-01-18 18:00:00 6.3 0 Calma 4 Noroeste 0 -- -- 99
2020-01-18 17:00:00 6.3 0 Calma 5 Noroeste 0.2 -- -- 99
2020-01-18 16:00:00 6.5 2 Oeste 5 Sudoeste 0.2 -- -- 98
2020-01-18 15:00:00 6.2 2 Noroeste 5 Noroeste 0 -- -- 98
2020-01-18 14:00:00 5.7 3 Noroeste 6 Noroeste 0.4 -- -- 98
2020-01-18 13:00:00 5.8 0 Calma 3 Sudeste 0.4 -- -- 97
2020-01-18 12:00:00 5.2 0 Calma 3 Sudeste 0.4 -- -- 96
2020-01-18 11:00:00 4.7 0 Calma 4 Sudeste 0 -- -- 96
2020-01-18 10:00:00 4.1 0 Calma 3 Norte 0.6 -- -- 95
2020-01-18 09:00:00 3.4 0 Calma 6 Noroeste 0 -- -- 94
2020-01-18 08:00:00 3.5 0 Calma 8 Sudeste 0 -- -- 94
2020-01-18 07:00:00 3 3 Sudeste 8 Nordeste 0 -- -- 90
2020-01-18 06:00:00 3.2 4 Este 14 Este 0 -- -- 87
2020-01-18 05:00:00 3.2 3 Sudeste 5 Este 0 -- -- 88
2020-01-18 04:00:00 3.2 0 Calma 3 Sudeste 0 -- -- 88
2020-01-18 03:00:00 3.5 3 Norte 6 Norte 0 -- -- 86
2020-01-18 02:00:00 3.6 0 Calma 4 Sur 0 -- -- 86
2020-01-18 01:00:00 3.7 3 Sudeste 8 Sudeste 0 -- -- 90
2020-01-18 00:00:00 4.2 0 Calma 6 Este 0 -- -- 90
2020-01-17 23:00:00 4.8 2 Este 5 Sudeste 0 -- -- 92
2020-01-17 22:00:00 5.2 3 Noroeste 6 Noroeste 0 -- -- 90
2020-01-17 21:00:00 6 3 Oeste 8 Sudoeste 0 -- -- 88
2020-01-17 20:00:00 7 3 Sudoeste 9 Oeste 0 -- -- 86
2020-01-17 19:00:00 7.9 3 Sudeste 11 Oeste 0 -- -- 81
2020-01-17 18:00:00 9.6 4 Sudoeste 14 Noroeste 0 -- -- 74
2020-01-17 17:00:00 10.9 5 Oeste 18 Noroeste 0 -- -- 67
2020-01-17 16:00:00 11.7 10 Noroeste 24 Noroeste 0 -- -- 54
2020-01-17 15:00:00 11.5 8 Oeste 20 Sudoeste 0 -- -- 58
2020-01-17 14:00:00 10.8 8 Oeste 24 Sudoeste 0 -- -- 65
2020-01-17 13:00:00 9.3 9 Oeste 21 Sudoeste 0 -- -- 74
2020-01-17 12:00:00 8.9 9 Oeste 26 Sudoeste 0 -- -- 83
2020-01-17 11:00:00 7.1 5 Oeste 17 Sudoeste 0 -- -- 94
2020-01-17 10:00:00 5.5 6 Oeste 14 Oeste 0 -- -- 98
2020-01-17 09:00:00 4.3 3 Oeste 10 Sudoeste 0 -- -- 98
2020-01-17 08:00:00 3.6 2 Oeste 5 Oeste 0 -- -- 97
2020-01-17 07:00:00 3.2 0 Calma 4 Oeste 0 -- -- 94
2020-01-17 06:00:00 4.4 0 Calma 6 Sudoeste 0 -- -- 91
2020-01-17 05:00:00 5.7 3 Oeste 10 Sudoeste 0 -- -- 87
2020-01-17 04:00:00 6.4 4 Oeste 11 Sudoeste 0 -- -- 83
2020-01-17 03:00:00 7 4 Oeste 17 Sudoeste 0 -- -- 79
2020-01-17 02:00:00 6.9 3 Oeste 12 Oeste 0 -- -- 80
2020-01-17 01:00:00 6 4 Oeste 10 Sudoeste 0 -- -- 83
2020-01-17 00:00:00 7 2 Sudoeste 8 Sudoeste 0 -- -- 78
2020-01-16 23:00:00 6.7 3 Oeste 8 Sudoeste 0 -- -- 78
2020-01-16 22:00:00 5.5 2 Oeste 4 Noroeste 0 -- -- 92
2020-01-16 21:00:00 6.5 0 Calma 5 Sudoeste 0 -- -- 93
2020-01-16 20:00:00 6.5 0 Calma 5 Sur 0 -- -- 94
2020-01-16 19:00:00 6.6 0 Calma 5 Noroeste 0 -- -- 92
2020-01-16 18:00:00 8.2 2 Noroeste 5 Noroeste 0 -- -- 85
2020-01-16 17:00:00 11 3 Noroeste 8 Noroeste 0 -- -- 80
2020-01-16 16:00:00 10.5 3 Noroeste 13 Sur 0 -- -- 83
2020-01-16 15:00:00 9.6 6 Sur 13 Sur 0 -- -- 87
2020-01-16 14:00:00 7.9 2 Noroeste 6 Noroeste 0 -- -- 93
2020-01-16 13:00:00 7.6 3 Noroeste 6 Noroeste 0 -- -- 94
2020-01-16 12:00:00 6.9 0 Calma 6 Nordeste 0 -- -- 95
2020-01-16 11:00:00 6.6 3 Sudeste 6 Sudeste 0.4 -- -- 95
2020-01-16 10:00:00 6.5 0 Calma 7 Sudeste 0 -- -- 89
2020-01-16 09:00:00 6.3 2 Este 5 Este 0 -- -- 89
2020-01-16 08:00:00 6.6 2 Este 7 Nordeste 0 -- -- 87
2020-01-16 07:00:00 6.1 3 Este 7 Norte 0 -- -- 89
2020-01-16 06:00:00 5.8 2 Este 4 Sudeste 0 -- -- 90
2020-01-16 05:00:00 5.8 0 Calma 3 Este 0 -- -- 90
2020-01-16 04:00:00 5.9 2 Este 3 Nordeste 0 -- -- 89
2020-01-16 03:00:00 6 3 Este 5 Sudeste 0 -- -- 88
2020-01-16 02:00:00 6.2 0 Calma 7 Nordeste 0 -- -- 87
2020-01-16 01:00:00 6.2 3 Nordeste 6 Norte 0 -- -- 86
2020-01-16 00:00:00 6 2 Este 6 Este 0 -- -- 87
2020-01-15 23:00:00 5.9 2 Sudeste 5 Nordeste 0 -- -- 88
2020-01-15 22:00:00 5.9 0 Calma 4 Este 0 -- -- 87
2020-01-15 21:00:00 5.9 0 Calma 5 Este 0 -- -- 87
2020-01-15 20:00:00 6.2 0 Calma 5 Sudeste 0 -- -- 86
2020-01-15 19:00:00 6.5 0 Calma 5 Nordeste 0 -- -- 83
2020-01-15 18:00:00 6.8 0 Calma 3 Sudeste 0 -- -- 81
2020-01-15 17:00:00 6.9 0 Calma 4 Sudeste 0 -- -- 81
2020-01-15 16:00:00 6.8 2 Sudeste 4 Sur 0 -- -- 81
2020-01-15 15:00:00 6.6 3 Sur 6 Sudeste 0 -- -- 81
2020-01-15 14:00:00 5.7 2 Este 6 Este 0 -- -- 85
2020-01-15 13:00:00 5.7 0 Calma 8 Sur 0 -- -- 85
2020-01-15 12:00:00 5.2 4 Sudeste 8 Sudeste 0 -- -- 86
2020-01-15 11:00:00 3.9 2 Este 7 Este 0 -- -- 89
2020-01-15 10:00:00 3.1 0 Calma 6 Nordeste 0 -- -- 91
2020-01-15 09:00:00 2.4 2 Sudeste 6 Este 0 -- -- 91
2020-01-15 08:00:00 2.4 0 Calma 4 Sudeste 0 -- -- 90
2020-01-15 07:00:00 2.1 0 Calma 4 Sudeste 0 -- -- 93
2020-01-15 06:00:00 1.3 0 Calma 5 Norte 0 -- -- 93
2020-01-15 05:00:00 1.6 0 Calma 2 Sur 0 -- -- 89
2020-01-15 04:00:00 3.4 0 Calma 2 Sur 0 -- -- 87
2020-01-15 03:00:00 3.6 0 Calma 3 Norte 0 -- -- 87
2020-01-15 02:00:00 3.5 0 Calma 2 Sudeste 0 -- -- 83
2020-01-15 01:00:00 3.5 0 Calma 3 Sudeste 0 -- -- 83
2020-01-15 00:00:00 3.4 3 Sudeste 4 Sudeste 0 -- -- 84
2020-01-14 23:00:00 3.1 0 Calma 3 Este 0 -- -- 83
2020-01-14 22:00:00 3.3 2 Este 4 Este 0 -- -- 83
2020-01-14 21:00:00 3.5 0 Calma 3 Este 0 -- -- 82
2020-01-14 20:00:00 3.6 2 Sudeste 3 Nordeste 0 -- -- 82
2020-01-14 19:00:00 4 0 Calma 6 Este 0 -- -- 79
2020-01-14 18:00:00 5 2 Sudeste 8 Este 0 -- -- 74
2020-01-14 17:00:00 6.8 4 Este 8 Sudeste 0 -- -- 69
2020-01-14 16:00:00 6.9 2 Este 10 Sur 0 -- -- 68
2020-01-14 15:00:00 6.5 4 Oeste 10 Sudeste 0 -- -- 68
2020-01-14 14:00:00 5.8 5 Sudeste 9 Sudeste 0 -- -- 74
2020-01-14 13:00:00 4.6 2 Sudeste 8 Sudeste 0 -- -- 76
2020-01-14 12:00:00 2.8 3 Este 10 Este 0 -- -- 84
2020-01-14 11:00:00 0.9 5 Este 8 Este 0 -- -- 92
2020-01-14 10:00:00 -1.2 0 Calma 4 Nordeste 0 -- -- 97
2020-01-14 09:00:00 -2.5 0 Calma 3 Este 0 -- -- 97
2020-01-14 08:00:00 -3.6 0 Calma 3 Este 0 -- -- 97
2020-01-14 07:00:00 -3.9 0 Calma 4 Este 0 -- -- 95
2020-01-14 06:00:00 -3.9 0 Calma 3 Este 0 -- -- 95
2020-01-14 05:00:00 -4.4 0 Calma 3 Sudeste 0 -- -- 93
2020-01-14 04:00:00 -4 0 Calma 2 Sudeste 0 -- -- 93
2020-01-14 03:00:00 -3.5 0 Calma 2 Sudeste 0 -- -- 92
2020-01-14 02:00:00 -2.9 0 Calma 2 Nordeste 0 -- -- 93
2020-01-14 01:00:00 -2.4 0 Calma 2 Este 0 -- -- 92
2020-01-14 00:00:00 -1.5 2 Norte 5 Sudeste 0 -- -- 92
2020-01-13 23:00:00 -1.2 0 Calma 3 Sudoeste 0 -- -- 89
2020-01-13 22:00:00 0 3 Noroeste 5 Norte 0 -- -- 89
2020-01-13 21:00:00 0.4 0 Calma 3 Sudoeste 0 -- -- 84
2020-01-13 20:00:00 1.6 0 Calma 3 Sudoeste 0 -- -- 81
2020-01-13 19:00:00 3.2 0 Calma 5 Sudoeste 0 -- -- 75
2020-01-13 18:00:00 6.1 0 Calma 5 Sudoeste 0 -- -- 68
2020-01-13 17:00:00 7.4 3 Oeste 13 Sudoeste 0 -- -- 62
2020-01-13 16:00:00 7.7 3 Sudoeste 11 Sur 0 -- -- 61
2020-01-13 15:00:00 7.3 3 Sudoeste 10 Sudoeste 0 -- -- 61
2020-01-13 14:00:00 6.6 3 Sur 10 Sur 0 -- -- 62
2020-01-13 13:00:00 5.2 2 Sudoeste 6 Sudeste 0 -- -- 70
2020-01-13 12:00:00 2.2 0 Calma 5 Este 0 -- -- 78
2020-01-13 11:00:00 0.1 2 Sudeste 5 Sudeste 0 -- -- 85
2020-01-13 10:00:00 -1.5 2 Sudeste 3 Sudeste 0 -- -- 90
2020-01-13 09:00:00 -3.7 0 Calma 3 Sudeste 0 -- -- 92
2020-01-13 08:00:00 -3.9 0 Calma 4 Sudeste 0 -- -- 93
2020-01-13 07:00:00 -4.5 0 Calma 2 Sudeste 0 -- -- 92
2020-01-13 06:00:00 -4.4 0 Calma 2 Sudeste 0 -- -- 92
2020-01-13 05:00:00 -4.2 0 Calma 3 Sudeste 0 -- -- 92
2020-01-13 04:00:00 -3.8 0 Calma 3 Sudeste 0 -- -- 91
2020-01-13 03:00:00 -3.3 0 Calma 2 Sudeste 0 -- -- 90
2020-01-13 02:00:00 -3.1 0 Calma 2 Este 0 -- -- 90
2020-01-13 01:00:00 -2.7 0 Calma 2 Sudeste 0 -- -- 88
2020-01-13 00:00:00 -2.3 0 Calma 2 Sudeste 0 -- -- 87
2020-01-12 23:00:00 -1.8 0 Calma 2 Sudeste 0 -- -- 84
2020-01-12 22:00:00 -1.1 0 Calma 0 Calma 0 -- -- 82
2020-01-12 21:00:00 -0.4 0 Calma 2 Sur 0 -- -- 79
2020-01-12 20:00:00 0.5 0 Calma 3 Sur 0 -- -- 74
2020-01-12 19:00:00 2.5 0 Calma 4 Sudoeste 0 -- -- 66
2020-01-12 18:00:00 6.4 0 Calma 7 Sudoeste 0 -- -- 50
2020-01-12 17:00:00 10 3 Sudoeste 9 Sur 0 -- -- 42
2020-01-12 16:00:00 9.4 3 Sudoeste 6 Noroeste 0 -- -- 41
2020-01-12 15:00:00 8.4 3 Sudeste 8 Sudeste 0 -- -- 45
2020-01-12 14:00:00 8 3 Sudeste 8 Este 0 -- -- 46
2020-01-12 13:00:00 6.9 4 Sudeste 10 Sudeste 0 -- -- 51
2020-01-12 12:00:00 5.5 3 Sudeste 8 Sudeste 0 -- -- 53
2020-01-12 11:00:00 2.9 4 Sudeste 6 Este 0 -- -- 60
2020-01-12 10:00:00 -2.7 0 Calma 3 Sudeste 0 -- -- 81
2020-01-12 09:00:00 -5.4 0 Calma 3 Sudeste 0 -- -- 88
2020-01-12 08:00:00 -5.6 0 Calma 3 Este 0 -- -- 88
2020-01-12 07:00:00 -5.3 0 Calma 2 Este 0 -- -- 87
2020-01-12 06:00:00 -5 0 Calma 2 Este 0 -- -- 87
2020-01-12 05:00:00 -4.7 0 Calma 3 Este 0 -- -- 88
2020-01-12 04:00:00 -4.2 2 Sudeste 2 Sudeste 0 -- -- 88
2020-01-12 03:00:00 -3.6 0 Calma 3 Este 0 -- -- 87
2020-01-12 02:00:00 -3.1 0 Calma 3 Sudeste 0 -- -- 86
2020-01-12 01:00:00 -2.4 0 Calma 2 Sudeste 0 -- -- 85
2020-01-12 00:00:00 -1.9 0 Calma 2 Sudeste 0 -- -- 81
2020-01-11 23:00:00 -0.7 0 Calma 3 Norte 0 -- -- 77
2020-01-11 22:00:00 0.6 2 Oeste 4 Noroeste 0 -- -- 71
2020-01-11 21:00:00 1.8 2 Oeste 3 Oeste 0 -- -- 69
2020-01-11 20:00:00 3.3 0 Calma 5 Oeste 0 -- -- 63
2020-01-11 19:00:00 2.9 2 Sudoeste 4 Oeste 0 -- -- 59
2020-01-11 18:00:00 6 0 Calma 4 Sudoeste 0 -- -- 52
2020-01-11 17:00:00 10.2 3 Sudoeste 6 Este 0 -- -- 38
2020-01-11 16:00:00 10 4 Sudeste 10 Sudeste 0 -- -- 39
2020-01-11 15:00:00 9.7 4 Sudeste 13 Sudeste 0 -- -- 40
2020-01-11 14:00:00 9.6 6 Este 12 Este 0 -- -- 42
2020-01-11 13:00:00 8.4 5 Este 11 Sudeste 0 -- -- 49
2020-01-11 12:00:00 6.5 3 Sudeste 8 Sudeste 0 -- -- 57
2020-01-11 11:00:00 3.3 4 Sudeste 8 Este 0 -- -- 73
2020-01-11 10:00:00 -0.6 3 Este 6 Este 0 -- -- 89
2020-01-11 09:00:00 -3.8 0 Calma 3 Norte 0 -- -- 92
2020-01-11 08:00:00 -3.6 0 Calma 2 Nordeste 0 -- -- 91
2020-01-11 07:00:00 -3.3 0 Calma 3 Sur 0 -- -- 89
2020-01-11 06:00:00 -2.3 0 Calma 5 Norte 0 -- -- 86
2020-01-11 05:00:00 -2.1 2 Norte 6 Norte 0 -- -- 88
2020-01-11 04:00:00 -2.1 0 Calma 4 Norte 0 -- -- 88
2020-01-11 03:00:00 -1.4 2 Norte 4 Norte 0 -- -- 89
2020-01-11 02:00:00 -0.1 0 Calma 4 Sur 0 -- -- 85
2020-01-11 01:00:00 1.2 0 Calma 7 Este 0 -- -- 79
2020-01-11 00:00:00 3.1 4 Nordeste 14 Este 0 -- -- 77
2020-01-10 23:00:00 3.4 2 Este 12 Nordeste 0 -- -- 73
2020-01-10 22:00:00 4.8 3 Este 15 Nordeste 0 -- -- 67
2020-01-10 21:00:00 6.4 8 Nordeste 18 Nordeste 0 -- -- 57
2020-01-10 20:00:00 6.5 6 Nordeste 22 Norte 0 -- -- 58
2020-01-10 19:00:00 7.3 10 Nordeste 27 Nordeste 0 -- -- 56
2020-01-10 18:00:00 8 13 Nordeste 27 Nordeste 0 -- -- 55
2020-01-10 17:00:00 9.6 9 Nordeste 26 Nordeste 0 -- -- 49
2020-01-10 16:00:00 10 11 Nordeste 23 Norte 0 -- -- 46
2020-01-10 15:00:00 10 10 Nordeste 27 Nordeste 0 -- -- 47
2020-01-10 14:00:00 10 13 Nordeste 36 Nordeste 0 -- -- 45
2020-01-10 13:00:00 9.3 17 Nordeste 38 Norte 0 -- -- 48
2020-01-10 12:00:00 8.6 13 Norte 28 Norte 0 -- -- 53
2020-01-10 11:00:00 7.5 8 Nordeste 20 Nordeste 0 -- -- 61
2020-01-10 10:00:00 5.6 8 Nordeste 22 Nordeste 0 -- -- 70
2020-01-10 09:00:00 3.8 3 Norte 14 Nordeste 0 -- -- 75
2020-01-10 08:00:00 3.6 7 Norte 14 Nordeste 0 -- -- 79
2020-01-10 07:00:00 1.2 4 Norte 9 Norte 0 -- -- 96
2020-01-10 06:00:00 1 0 Calma 4 Sudeste 0 -- -- 89
2020-01-10 05:00:00 3.6 2 Sudeste 11 Sudeste 0 -- -- 88
2020-01-10 04:00:00 2.5 3 Sudeste 10 Nordeste 0 -- -- 89
2020-01-10 03:00:00 3.9 2 Sudoeste 6 Sur 0 -- -- 79
2020-01-10 02:00:00 7.1 3 Sudeste 27 Noroeste 0 -- -- 69
2020-01-10 01:00:00 8.1 8 Noroeste 22 Noroeste 0 -- -- 69
2020-01-10 00:00:00 6.9 5 Oeste 14 Noroeste 0 -- -- 82
2020-01-09 23:00:00 7.2 3 Oeste 14 Sur 0 -- -- 79
2020-01-09 22:00:00 9.2 4 Sudeste 18 Noroeste 0 -- -- 70
2020-01-09 21:00:00 8.1 4 Oeste 11 Oeste 0 -- -- 77
2020-01-09 20:00:00 8.5 4 Sudoeste 9 Sudoeste 0 -- -- 75
2020-01-09 19:00:00 7.8 2 Oeste 6 Sudoeste 0 -- -- 75
2020-01-09 18:00:00 9.6 3 Oeste 12 Sur 0 -- -- 65
2020-01-09 17:00:00 11.7 3 Sudoeste 9 Sudoeste 0 -- -- 57
2020-01-09 16:00:00 11.9 3 Oeste 13 Sur 0 -- -- 56
2020-01-09 15:00:00 11.9 4 Sudoeste 15 Sur 0 -- -- 55
2020-01-09 14:00:00 12 4 Sur 13 Sur 0 -- -- 54
2020-01-09 13:00:00 11.4 3 Oeste 12 Sudoeste 0 -- -- 57
2020-01-09 12:00:00 10.4 0 Calma 6 Sudeste 0 -- -- 62
2020-01-09 11:00:00 7.6 3 Sudeste 6 Sudeste 0 -- -- 71
2020-01-09 10:00:00 3.4 2 Sudeste 4 Sudeste 0 -- -- 83
2020-01-09 09:00:00 2.3 0 Calma 5 Noroeste 0 -- -- 85
2020-01-09 08:00:00 3.3 4 Noroeste 8 Noroeste 0 -- -- 84
2020-01-09 07:00:00 1.7 0 Calma 5 Noroeste 0 -- -- 90
2020-01-09 06:00:00 0.8 2 Noroeste 4 Noroeste 0 -- -- 89
2020-01-09 05:00:00 0.3 0 Calma 0 Calma 0 -- -- 85
2020-01-09 04:00:00 0.7 0 Calma 2 Este 0 -- -- 84
2020-01-09 03:00:00 1 0 Calma 0 Calma 0 -- -- 83
2020-01-09 02:00:00 1.3 0 Calma 2 Este 0 -- -- 81
2020-01-09 01:00:00 1.8 0 Calma 2 Este 0 -- -- 78
2020-01-09 00:00:00 2.9 0 Calma 8 Sudeste 0 -- -- 73
2020-01-08 23:00:00 5 0 Calma 5 Noroeste 0 -- -- 67
2020-01-08 22:00:00 4.2 4 Noroeste 5 Noroeste 0 -- -- 69
2020-01-08 21:00:00 6.3 3 Sur 5 Noroeste 0 -- -- 59
2020-01-08 20:00:00 7 2 Oeste 4 Oeste 0 -- -- 54
2020-01-08 19:00:00 7.9 2 Oeste 5 Noroeste 0 -- -- 58
2020-01-08 18:00:00 9.2 0 Calma 3 Este 0 -- -- 52
2020-01-08 17:00:00 13.8 2 Sudeste 6 Sudeste 0 -- -- 43
2020-01-08 16:00:00 14.1 5 Sudeste 11 Sudeste 0 -- -- 41
2020-01-08 15:00:00 14.2 3 Este 9 Este 0 -- -- 40
2020-01-08 14:00:00 14 3 Sur 6 Sur 0 -- -- 39
2020-01-08 13:00:00 12.2 4 Sudeste 12 Sudeste 0 -- -- 50
2020-01-08 12:00:00 10 3 Sudeste 6 Este 0 -- -- 53
2020-01-08 11:00:00 6.6 3 Sudeste 6 Sudeste 0 -- -- 68
2020-01-08 10:00:00 2.4 3 Sudeste 6 Sudeste 0 -- -- 82
2020-01-08 09:00:00 -0.2 0 Calma 3 Este 0 -- -- 87
2020-01-08 08:00:00 -0.4 0 Calma 3 Sudeste 0 -- -- 89
2020-01-08 07:00:00 -0.9 0 Calma 4 Noroeste 0 -- -- 89
2020-01-08 06:00:00 -1 0 Calma 2 Este 0 -- -- 88
2020-01-08 05:00:00 -0.7 0 Calma 2 Nordeste 0 -- -- 88
2020-01-08 04:00:00 -0.7 0 Calma 2 Nordeste 0 -- -- 90
2020-01-08 03:00:00 -0.4 0 Calma 4 Este 0 -- -- 92
2020-01-08 02:00:00 -0.4 2 Este 6 Este 0 -- -- 89
2020-01-08 01:00:00 0 2 Este 4 Este 0 -- -- 89
2020-01-08 00:00:00 0.5 0 Calma 3 Sudeste 0 -- -- 87
2020-01-07 23:00:00 1.4 0 Calma 3 Este 0 -- -- 86
2020-01-07 22:00:00 2.6 0 Calma 3 Sudeste 0 -- -- 82
2020-01-07 21:00:00 5.4 0 Calma 6 Oeste 0 -- -- 73
2020-01-07 20:00:00 5.3 2 Oeste 4 Sudoeste 0 -- -- 74
2020-01-07 19:00:00 6.8 3 Sudoeste 6 Sudoeste 0 -- -- 67
2020-01-07 18:00:00 9.8 2 Sudoeste 5 Sudoeste 0 -- -- 57
2020-01-07 17:00:00 13.2 2 Oeste 5 Oeste 0 -- -- 42
2020-01-07 16:00:00 13.4 2 Oeste 8 Sur 0 -- -- 44
2020-01-07 15:00:00 13.1 2 Sur 10 Sudoeste 0 -- -- 44
2020-01-07 14:00:00 12.9 3 Sudeste 6 Este 0 -- -- 44
2020-01-07 13:00:00 11.5 3 Sudeste 6 Sudeste 0 -- -- 48
2020-01-07 12:00:00 9.4 3 Sudeste 8 Este 0 -- -- 55
2020-01-07 11:00:00 6.3 3 Sudeste 5 Sudeste 0 -- -- 63
2020-01-07 10:00:00 1.4 0 Calma 3 Sudeste 0 -- -- 88
2020-01-07 09:00:00 -1.3 2 Sudeste 4 Sudeste 0 -- -- 95
2020-01-07 08:00:00 -1.7 0 Calma 4 Sudeste 0 -- -- 95
2020-01-07 07:00:00 -1.9 0 Calma 3 Este 0 -- -- 93
2020-01-07 06:00:00 -1.7 0 Calma 3 Norte 0 -- -- 92
2020-01-07 05:00:00 -1.6 0 Calma 3 Este 0 -- -- 92
2020-01-07 04:00:00 -1.1 2 Este 3 Este 0 -- -- 91
2020-01-07 03:00:00 -0.8 0 Calma 3 Este 0 -- -- 92
2020-01-07 02:00:00 -0.3 2 Este 3 Este 0 -- -- 90
2020-01-07 01:00:00 0.1 0 Calma 3 Sudeste 0 -- -- 90
2020-01-07 00:00:00 0.7 0 Calma 2 Este 0 -- -- 88
2020-01-06 23:00:00 1.6 0 Calma 3 Norte 0 -- -- 85
2020-01-06 22:00:00 3.1 0 Calma 3 Oeste 0 -- -- 83
2020-01-06 21:00:00 4.9 2 Oeste 4 Noroeste 0 -- -- 83
2020-01-06 20:00:00 5.2 2 Oeste 4 Sudoeste 0 -- -- 75
2020-01-06 19:00:00 6 2 Oeste 5 Sudoeste 0 -- -- 70
2020-01-06 18:00:00 8.7 2 Sudoeste 5 Sudoeste 0 -- -- 61
2020-01-06 17:00:00 12.6 2 Sudoeste 8 Noroeste 0 -- -- 48
2020-01-06 16:00:00 12.9 3 Sudoeste 9 Sur 0 -- -- 44
2020-01-06 15:00:00 12.2 3 Sudeste 8 Sudeste 0 -- -- 46
2020-01-06 14:00:00 11.7 3 Este 8 Sudeste 0 -- -- 49
2020-01-06 13:00:00 10.8 4 Sudeste 8 Este 0 -- -- 49
2020-01-06 12:00:00 9.2 4 Sudeste 6 Sudeste 0 -- -- 56
2020-01-06 11:00:00 5.4 2 Sudeste 5 Sudeste 0 -- -- 71
2020-01-06 10:00:00 -0.1 0 Calma 2 Sudeste 0 -- -- 92